sensor_id;sensor_type;location;lat;lon;timestamp;pressure;altitude;pressure_sealevel;temperature;humidity
9523;BME280;63165;43.016;25.784;2023-02-14T00:01:17;101700.63;;;1.08;74.49
9523;BME280;63165;43.016;25.784;2023-02-14T00:03:46;101693.84;;;1.10;74.44
9523;BME280;63165;43.016;25.784;2023-02-14T00:06:14;101667.78;;;1.04;74.28
9523;BME280;63165;43.016;25.784;2023-02-14T00:08:41;101680.28;;;1.14;74.35
9523;BME280;63165;43.016;25.784;2023-02-14T00:11:10;101679.50;;;1.15;74.24
9523;BME280;63165;43.016;25.784;2023-02-14T00:13:38;101676.13;;;1.16;74.14
9523;BME280;63165;43.016;25.784;2023-02-14T00:16:25;101667.88;;;1.05;73.82
9523;BME280;63165;43.016;25.784;2023-02-14T00:18:53;101669.69;;;1.08;73.99
9523;BME280;63165;43.016;25.784;2023-02-14T00:21:29;101685.00;;;1.05;73.53
9523;BME280;63165;43.016;25.784;2023-02-14T00:23:56;101673.88;;;0.88;73.63
9523;BME280;63165;43.016;25.784;2023-02-14T00:26:24;101683.75;;;0.96;72.93
9523;BME280;63165;43.016;25.784;2023-02-14T00:28:51;101677.19;;;0.85;72.98
9523;BME280;63165;43.016;25.784;2023-02-14T00:31:18;101671.44;;;0.73;72.90
9523;BME280;63165;43.016;25.784;2023-02-14T00:33:45;101672.25;;;0.72;73.18
9523;BME280;63165;43.016;25.784;2023-02-14T00:36:15;101679.34;;;0.60;73.02
9523;BME280;63165;43.016;25.784;2023-02-14T00:38:44;101669.72;;;0.55;73.25
9523;BME280;63165;43.016;25.784;2023-02-14T00:41:11;101650.69;;;0.35;72.93
9523;BME280;63165;43.016;25.784;2023-02-14T00:43:44;101640.72;;;0.25;73.37
9523;BME280;63165;43.016;25.784;2023-02-14T00:46:12;101676.28;;;0.32;73.52
9523;BME280;63165;43.016;25.784;2023-02-14T00:48:39;101661.53;;;0.30;74.08
9523;BME280;63165;43.016;25.784;2023-02-14T00:51:07;101655.69;;;0.32;73.96
9523;BME280;63165;43.016;25.784;2023-02-14T00:53:36;101661.53;;;0.30;73.78
9523;BME280;63165;43.016;25.784;2023-02-14T00:56:04;101657.88;;;0.25;73.87
9523;BME280;63165;43.016;25.784;2023-02-14T00:58:32;101661.66;;;0.15;74.15
9523;BME280;63165;43.016;25.784;2023-02-14T01:00:59;101654.56;;;0.11;74.32
9523;BME280;63165;43.016;25.784;2023-02-14T01:03:26;101638.84;;;0.05;73.97
9523;BME280;63165;43.016;25.784;2023-02-14T01:05:54;101640.34;;;0.01;74.75
9523;BME280;63165;43.016;25.784;2023-02-14T01:08:21;101629.84;;;-0.04;74.85
9523;BME280;63165;43.016;25.784;2023-02-14T01:10:50;101621.00;;;-0.09;75.17
9523;BME280;63165;43.016;25.784;2023-02-14T01:13:18;101616.56;;;-0.11;75.29
9523;BME280;63165;43.016;25.784;2023-02-14T01:15:47;101619.88;;;-0.14;75.58
9523;BME280;63165;43.016;25.784;2023-02-14T01:18:17;101619.63;;;-0.18;76.18
9523;BME280;63165;43.016;25.784;2023-02-14T01:20:45;101619.94;;;-0.12;76.15
9523;BME280;63165;43.016;25.784;2023-02-14T01:23:12;101603.56;;;-0.14;76.23
9523;BME280;63165;43.016;25.784;2023-02-14T01:25:39;101580.53;;;-0.11;76.09
9523;BME280;63165;43.016;25.784;2023-02-14T01:28:08;101600.63;;;-0.04;75.88
9523;BME280;63165;43.016;25.784;2023-02-14T01:30:36;101600.25;;;-0.12;76.16
9523;BME280;63165;43.016;25.784;2023-02-14T01:33:03;101595.19;;;-0.10;76.14
9523;BME280;63165;43.016;25.784;2023-02-14T01:35:31;101591.88;;;-0.08;76.15
9523;BME280;63165;43.016;25.784;2023-02-14T01:37:58;101580.69;;;-0.08;76.71
9523;BME280;63165;43.016;25.784;2023-02-14T01:40:25;101560.59;;;-0.15;76.36
9523;BME280;63165;43.016;25.784;2023-02-14T01:42:52;101563.25;;;-0.14;76.45
9523;BME280;63165;43.016;25.784;2023-02-14T01:45:25;101547.09;;;-0.11;76.43
9523;BME280;63165;43.016;25.784;2023-02-14T01:47:55;101548.72;;;-0.13;76.26
9523;BME280;63165;43.016;25.784;2023-02-14T01:50:26;101529.66;;;-0.17;76.72
9523;BME280;63165;43.016;25.784;2023-02-14T01:52:57;101529.66;;;-0.17;76.38
9523;BME280;63165;43.016;25.784;2023-02-14T01:55:28;101522.97;;;-0.13;76.70
9523;BME280;63165;43.016;25.784;2023-02-14T01:57:58;101507.41;;;-0.16;76.87
9523;BME280;63165;43.016;25.784;2023-02-14T02:00:29;101516.09;;;-0.14;76.85
9523;BME280;63165;43.016;25.784;2023-02-14T02:03:15;101508.94;;;-0.20;76.88
9523;BME280;63165;43.016;25.784;2023-02-14T02:05:45;101518.78;;;-0.11;76.75
9523;BME280;63165;43.016;25.784;2023-02-14T02:08:14;101529.81;;;-0.14;76.90
9523;BME280;63165;43.016;25.784;2023-02-14T02:10:41;101513.50;;;-0.14;77.02
9523;BME280;63165;43.016;25.784;2023-02-14T02:13:16;101531.16;;;-0.04;76.98
9523;BME280;63165;43.016;25.784;2023-02-14T02:15:53;101532.94;;;-0.03;77.26
9523;BME280;63165;43.016;25.784;2023-02-14T02:18:27;101528.47;;;-0.07;77.15
9523;BME280;63165;43.016;25.784;2023-02-14T02:24:08;101510.75;;;-0.01;77.22
9523;BME280;63165;43.016;25.784;2023-02-14T02:39:08;101495.59;;;0.05;77.88
9523;BME280;63165;43.016;25.784;2023-02-14T02:41:46;101501.84;;;0.10;78.14
9523;BME280;63165;43.016;25.784;2023-02-14T02:44:18;101493.19;;;0.08;78.02
9523;BME280;63165;43.016;25.784;2023-02-14T02:46:54;101502.06;;;0.15;78.09
9523;BME280;63165;43.016;25.784;2023-02-14T02:49:34;101489.78;;;0.09;78.06
9523;BME280;63165;43.016;25.784;2023-02-14T02:52:26;101497.66;;;0.12;78.07
9523;BME280;63165;43.016;25.784;2023-02-14T02:55:18;101499.50;;;0.15;78.07
9523;BME280;63165;43.016;25.784;2023-02-14T02:57:49;101506.63;;;0.21;78.11
9523;BME280;63165;43.016;25.784;2023-02-14T03:00:17;101506.78;;;0.24;78.03
9523;BME280;63165;43.016;25.784;2023-02-14T03:02:49;101507.66;;;0.24;77.97
9523;BME280;63165;43.016;25.784;2023-02-14T03:05:35;101480.59;;;0.14;77.59
9523;BME280;63165;43.016;25.784;2023-02-14T03:08:04;101485.03;;;0.17;77.43
9523;BME280;63165;43.016;25.784;2023-02-14T03:10:34;101490.78;;;0.11;77.57
9523;BME280;63165;43.016;25.784;2023-02-14T03:13:22;101488.03;;;0.08;77.90
9523;BME280;63165;43.016;25.784;2023-02-14T03:15:56;101484.59;;;0.08;77.44
9523;BME280;63165;43.016;25.784;2023-02-14T03:18:38;101477.59;;;0.05;77.87
9523;BME280;63165;43.016;25.784;2023-02-14T03:21:17;101475.34;;;0.11;77.57
9523;BME280;63165;43.016;25.784;2023-02-14T03:23:53;101467.66;;;0.13;77.72
9523;BME280;63165;43.016;25.784;2023-02-14T03:26:30;101470.03;;;0.08;77.84
9523;BME280;63165;43.016;25.784;2023-02-14T03:29:08;101456.50;;;0.12;77.68
9523;BME280;63165;43.016;25.784;2023-02-14T03:31:50;101436.91;;;-0.02;77.24
9523;BME280;63165;43.016;25.784;2023-02-14T03:34:25;101437.03;;;-0.17;77.03
9523;BME280;63165;43.016;25.784;2023-02-14T03:36:59;101449.88;;;-0.01;77.44
9523;BME280;63165;43.016;25.784;2023-02-14T03:39:30;101445.53;;;-0.02;77.58
9523;BME280;63165;43.016;25.784;2023-02-14T03:42:05;101440.41;;;-0.02;77.38
9523;BME280;63165;43.016;25.784;2023-02-14T03:44:35;101437.66;;;-0.05;77.34
9523;BME280;63165;43.016;25.784;2023-02-14T03:47:06;101436.47;;;-0.11;76.95
9523;BME280;63165;43.016;25.784;2023-02-14T03:49:37;101443.19;;;-0.15;77.31
9523;BME280;63165;43.016;25.784;2023-02-14T03:52:07;101440.38;;;-0.20;77.24
9523;BME280;63165;43.016;25.784;2023-02-14T03:54:36;101424.78;;;-0.23;77.05
9523;BME280;63165;43.016;25.784;2023-02-14T03:57:11;101427.22;;;-0.26;77.07
9523;BME280;63165;43.016;25.784;2023-02-14T03:59:40;101415.25;;;-0.42;77.10
9523;BME280;63165;43.016;25.784;2023-02-14T04:02:10;101434.16;;;-0.41;76.87
9523;BME280;63165;43.016;25.784;2023-02-14T04:04:43;101427.16;;;-0.44;76.80
9523;BME280;63165;43.016;25.784;2023-02-14T04:07:13;101421.56;;;-0.53;77.06
9523;BME280;63165;43.016;25.784;2023-02-14T04:09:41;101427.28;;;-0.59;77.16
9523;BME280;63165;43.016;25.784;2023-02-14T04:12:10;101413.47;;;-0.77;77.25
9523;BME280;63165;43.016;25.784;2023-02-14T04:14:37;101425.94;;;-0.68;77.82
9523;BME280;63165;43.016;25.784;2023-02-14T04:17:05;101417.44;;;-0.67;77.72
9523;BME280;63165;43.016;25.784;2023-02-14T04:19:50;101412.28;;;-0.67;77.67
9523;BME280;63165;43.016;25.784;2023-02-14T04:22:17;101416.69;;;-0.65;77.89
9523;BME280;63165;43.016;25.784;2023-02-14T04:24:45;101421.84;;;-0.65;77.66
9523;BME280;63165;43.016;25.784;2023-02-14T04:27:14;101408.97;;;-0.65;77.59
9523;BME280;63165;43.016;25.784;2023-02-14T04:29:44;101396.03;;;-0.66;77.38
9523;BME280;63165;43.016;25.784;2023-02-14T04:32:13;101394.34;;;-0.66;77.46
9523;BME280;63165;43.016;25.784;2023-02-14T04:34:41;101393.38;;;-0.68;77.28
9523;BME280;63165;43.016;25.784;2023-02-14T04:37:09;101397.44;;;-0.73;77.40
9523;BME280;63165;43.016;25.784;2023-02-14T04:39:36;101416.13;;;-0.75;77.23
9523;BME280;63165;43.016;25.784;2023-02-14T04:42:04;101402.25;;;-0.79;77.32
9523;BME280;63165;43.016;25.784;2023-02-14T04:44:33;101411.81;;;-0.76;77.54
9523;BME280;63165;43.016;25.784;2023-02-14T04:47:03;101414.38;;;-0.76;77.54
9523;BME280;63165;43.016;25.784;2023-02-14T04:49:30;101404.97;;;-0.76;77.92
9523;BME280;63165;43.016;25.784;2023-02-14T04:51:58;101380.13;;;-0.93;77.69
9523;BME280;63165;43.016;25.784;2023-02-14T04:54:26;101398.56;;;-0.84;77.40
9523;BME280;63165;43.016;25.784;2023-02-14T04:56:53;101407.56;;;-0.92;76.95
9523;BME280;63165;43.016;25.784;2023-02-14T04:59:21;101404.78;;;-0.97;77.32
9523;BME280;63165;43.016;25.784;2023-02-14T05:01:50;101414.88;;;-1.00;77.56
9523;BME280;63165;43.016;25.784;2023-02-14T05:04:18;101421.78;;;-0.99;77.70
9523;BME280;63165;43.016;25.784;2023-02-14T05:06:45;101420.88;;;-1.00;77.52
9523;BME280;63165;43.016;25.784;2023-02-14T05:09:13;101418.41;;;-0.98;77.62
9523;BME280;63165;43.016;25.784;2023-02-14T05:11:40;101419.84;;;-1.03;77.50
9523;BME280;63165;43.016;25.784;2023-02-14T05:14:07;101432.53;;;-1.06;77.20
9523;BME280;63165;43.016;25.784;2023-02-14T05:16:34;101431.25;;;-1.14;76.94
9523;BME280;63165;43.016;25.784;2023-02-14T05:19:04;101430.13;;;-1.20;77.44
9523;BME280;63165;43.016;25.784;2023-02-14T05:21:31;101434.03;;;-1.26;77.31
9523;BME280;63165;43.016;25.784;2023-02-14T05:23:59;101440.47;;;-1.34;77.45
9523;BME280;63165;43.016;25.784;2023-02-14T05:26:27;101446.72;;;-1.29;77.91
9523;BME280;63165;43.016;25.784;2023-02-14T05:28:55;101444.97;;;-1.30;77.98
9523;BME280;63165;43.016;25.784;2023-02-14T05:31:22;101439.00;;;-1.29;78.04
9523;BME280;63165;43.016;25.784;2023-02-14T05:33:49;101443.19;;;-1.31;78.34
9523;BME280;63165;43.016;25.784;2023-02-14T05:36:18;101434.50;;;-1.33;78.33
9523;BME280;63165;43.016;25.784;2023-02-14T05:38:45;101436.38;;;-1.31;78.51
9523;BME280;63165;43.016;25.784;2023-02-14T05:41:13;101437.00;;;-1.35;78.75
9523;BME280;63165;43.016;25.784;2023-02-14T05:43:40;101444.31;;;-1.26;78.67
9523;BME280;63165;43.016;25.784;2023-02-14T05:46:07;101452.91;;;-1.26;78.74
9523;BME280;63165;43.016;25.784;2023-02-14T05:48:34;101425.84;;;-1.35;78.88
9523;BME280;63165;43.016;25.784;2023-02-14T05:51:03;101441.97;;;-1.22;79.19
9523;BME280;63165;43.016;25.784;2023-02-14T05:53:32;101441.94;;;-1.23;79.20
9523;BME280;63165;43.016;25.784;2023-02-14T05:55:59;101444.00;;;-1.16;79.37
9523;BME280;63165;43.016;25.784;2023-02-14T05:58:27;101458.63;;;-1.15;79.70
9523;BME280;63165;43.016;25.784;2023-02-14T06:00:55;101464.88;;;-1.10;79.85
9523;BME280;63165;43.016;25.784;2023-02-14T06:03:22;101462.63;;;-1.04;80.01
9523;BME280;63165;43.016;25.784;2023-02-14T06:05:50;101463.78;;;-0.99;80.12
9523;BME280;63165;43.016;25.784;2023-02-14T06:08:18;101458.47;;;-1.02;80.44
9523;BME280;63165;43.016;25.784;2023-02-14T06:10:47;101465.13;;;-0.89;80.53
9523;BME280;63165;43.016;25.784;2023-02-14T06:13:14;101456.00;;;-0.84;80.76
9523;BME280;63165;43.016;25.784;2023-02-14T06:15:41;101461.44;;;-0.77;80.85
9523;BME280;63165;43.016;25.784;2023-02-14T06:18:08;101460.88;;;-0.72;81.43
9523;BME280;63165;43.016;25.784;2023-02-14T06:20:36;101448.41;;;-0.64;81.76
9523;BME280;63165;43.016;25.784;2023-02-14T06:23:03;101449.44;;;-0.61;82.12
9523;BME280;63165;43.016;25.784;2023-02-14T06:25:30;101439.56;;;-0.53;82.80
9523;BME280;63165;43.016;25.784;2023-02-14T06:27:59;101429.91;;;-0.41;82.91
9523;BME280;63165;43.016;25.784;2023-02-14T06:30:26;101439.69;;;-0.33;83.35
9523;BME280;63165;43.016;25.784;2023-02-14T06:32:54;101447.03;;;-0.23;83.58
9523;BME280;63165;43.016;25.784;2023-02-14T06:35:21;101450.91;;;-0.15;83.80
9523;BME280;63165;43.016;25.784;2023-02-14T06:37:48;101452.94;;;-0.08;83.69
9523;BME280;63165;43.016;25.784;2023-02-14T06:40:16;101422.94;;;-0.25;83.53
9523;BME280;63165;43.016;25.784;2023-02-14T06:42:44;101451.94;;;0.07;83.71
9523;BME280;63165;43.016;25.784;2023-02-14T06:45:13;101450.56;;;0.13;83.59
9523;BME280;63165;43.016;25.784;2023-02-14T06:47:40;101454.28;;;0.20;83.54
9523;BME280;63165;43.016;25.784;2023-02-14T06:50:07;101447.50;;;0.22;83.42
9523;BME280;63165;43.016;25.784;2023-02-14T06:52:36;101457.44;;;0.32;83.85
9523;BME280;63165;43.016;25.784;2023-02-14T06:55:04;101452.44;;;0.35;83.64
9523;BME280;63165;43.016;25.784;2023-02-14T06:57:31;101463.91;;;0.42;84.07
9523;BME280;63165;43.016;25.784;2023-02-14T06:59:58;101458.09;;;0.46;84.07
9523;BME280;63165;43.016;25.784;2023-02-14T07:02:27;101455.00;;;0.53;84.09
9523;BME280;63165;43.016;25.784;2023-02-14T07:04:54;101452.78;;;0.61;84.18
9523;BME280;63165;43.016;25.784;2023-02-14T07:07:21;101455.59;;;0.66;84.63
9523;BME280;63165;43.016;25.784;2023-02-14T07:09:49;101453.13;;;0.69;84.95
9523;BME280;63165;43.016;25.784;2023-02-14T07:12:16;101457.75;;;0.76;85.31
9523;BME280;63165;43.016;25.784;2023-02-14T07:14:43;101453.28;;;0.91;85.47
9523;BME280;63165;43.016;25.784;2023-02-14T07:17:11;101447.59;;;0.99;85.24
9523;BME280;63165;43.016;25.784;2023-02-14T07:19:39;101447.13;;;1.07;85.56
9523;BME280;63165;43.016;25.784;2023-02-14T07:22:06;101445.84;;;1.17;85.68
9523;BME280;63165;43.016;25.784;2023-02-14T07:24:34;101452.16;;;1.24;85.69
9523;BME280;63165;43.016;25.784;2023-02-14T07:27:01;101456.81;;;1.32;85.90
9523;BME280;63165;43.016;25.784;2023-02-14T07:29:28;101452.06;;;1.42;86.02
9523;BME280;63165;43.016;25.784;2023-02-14T07:31:55;101453.34;;;1.51;86.71
9523;BME280;63165;43.016;25.784;2023-02-14T07:34:23;101451.22;;;1.62;86.66
9523;BME280;63165;43.016;25.784;2023-02-14T07:36:53;101459.34;;;1.71;86.70
9523;BME280;63165;43.016;25.784;2023-02-14T07:39:20;101454.63;;;1.82;86.96
9523;BME280;63165;43.016;25.784;2023-02-14T07:41:48;101456.59;;;1.88;87.12
9523;BME280;63165;43.016;25.784;2023-02-14T07:44:15;101464.09;;;2.03;87.36
9523;BME280;63165;43.016;25.784;2023-02-14T07:46:42;101461.09;;;2.14;87.87
9523;BME280;63165;43.016;25.784;2023-02-14T07:49:09;101446.56;;;2.17;88.16
9523;BME280;63165;43.016;25.784;2023-02-14T07:51:37;101455.97;;;2.37;88.17
9523;BME280;63165;43.016;25.784;2023-02-14T07:54:05;101462.66;;;2.53;88.43
9523;BME280;63165;43.016;25.784;2023-02-14T07:56:33;101460.00;;;2.74;88.29
9523;BME280;63165;43.016;25.784;2023-02-14T07:59:00;101447.53;;;2.86;87.85
9523;BME280;63165;43.016;25.784;2023-02-14T08:01:27;101455.53;;;3.17;87.52
9523;BME280;63165;43.016;25.784;2023-02-14T08:03:55;101449.31;;;3.36;86.84
9523;BME280;63165;43.016;25.784;2023-02-14T08:06:22;101439.41;;;3.48;86.09
9523;BME280;63165;43.016;25.784;2023-02-14T08:08:50;101448.75;;;3.70;85.69
9523;BME280;63165;43.016;25.784;2023-02-14T08:11:19;101437.16;;;3.84;84.70
9523;BME280;63165;43.016;25.784;2023-02-14T08:14:00;101423.53;;;3.90;83.98
9523;BME280;63165;43.016;25.784;2023-02-14T08:16:27;101428.47;;;4.09;83.59
9523;BME280;63165;43.016;25.784;2023-02-14T08:18:57;101437.50;;;4.22;82.60
9523;BME280;63165;43.016;25.784;2023-02-14T08:21:24;101429.72;;;4.22;81.46
9523;BME280;63165;43.016;25.784;2023-02-14T08:23:51;101446.78;;;4.43;81.43
9523;BME280;63165;43.016;25.784;2023-02-14T08:26:20;101442.56;;;4.46;80.63
9523;BME280;63165;43.016;25.784;2023-02-14T08:28:47;101437.50;;;4.50;80.03
9523;BME280;63165;43.016;25.784;2023-02-14T08:31:21;101423.69;;;4.51;79.66
9523;BME280;63165;43.016;25.784;2023-02-14T08:33:49;101431.91;;;4.64;79.25
9523;BME280;63165;43.016;25.784;2023-02-14T08:36:16;101432.16;;;4.74;78.83
9523;BME280;63165;43.016;25.784;2023-02-14T08:38:43;101423.75;;;4.82;78.10
9523;BME280;63165;43.016;25.784;2023-02-14T08:41:12;101430.06;;;4.91;77.38
9523;BME280;63165;43.016;25.784;2023-02-14T08:43:41;101424.19;;;4.96;76.94
9523;BME280;63165;43.016;25.784;2023-02-14T08:46:09;101429.47;;;4.99;76.63
9523;BME280;63165;43.016;25.784;2023-02-14T08:48:37;101431.16;;;4.99;76.21
9523;BME280;63165;43.016;25.784;2023-02-14T08:51:05;101420.06;;;5.04;76.30
9523;BME280;63165;43.016;25.784;2023-02-14T08:53:33;101412.34;;;5.06;75.88
9523;BME280;63165;43.016;25.784;2023-02-14T08:56:02;101423.78;;;5.14;75.58
9523;BME280;63165;43.016;25.784;2023-02-14T08:58:29;101412.59;;;5.15;74.67
9523;BME280;63165;43.016;25.784;2023-02-14T09:00:58;101422.00;;;5.12;74.78
9523;BME280;63165;43.016;25.784;2023-02-14T09:03:25;101406.78;;;5.24;74.47
9523;BME280;63165;43.016;25.784;2023-02-14T09:05:53;101395.69;;;5.30;73.84
9523;BME280;63165;43.016;25.784;2023-02-14T09:08:20;101395.06;;;5.40;73.28
9523;BME280;63165;43.016;25.784;2023-02-14T09:10:48;101393.69;;;5.53;72.59
9523;BME280;63165;43.016;25.784;2023-02-14T09:13:16;101394.75;;;5.61;72.08
9523;BME280;63165;43.016;25.784;2023-02-14T09:15:44;101395.88;;;5.71;71.53
9523;BME280;63165;43.016;25.784;2023-02-14T09:18:13;101384.03;;;5.82;70.63
9523;BME280;63165;43.016;25.784;2023-02-14T09:20:40;101388.53;;;5.91;70.41
9523;BME280;63165;43.016;25.784;2023-02-14T09:23:09;101376.16;;;5.79;70.67
9523;BME280;63165;43.016;25.784;2023-02-14T09:25:36;101392.78;;;5.87;70.38
9523;BME280;63165;43.016;25.784;2023-02-14T09:28:04;101398.16;;;5.93;70.29
9523;BME280;63165;43.016;25.784;2023-02-14T09:30:31;101390.44;;;5.96;69.86
9523;BME280;63165;43.016;25.784;2023-02-14T09:32:58;101386.84;;;5.91;69.95
9523;BME280;63165;43.016;25.784;2023-02-14T09:35:30;101377.03;;;5.79;69.75
9523;BME280;63165;43.016;25.784;2023-02-14T09:37:58;101381.19;;;5.73;70.11
9523;BME280;63165;43.016;25.784;2023-02-14T09:40:42;101382.00;;;5.70;70.38
9523;BME280;63165;43.016;25.784;2023-02-14T09:43:15;101368.19;;;5.71;70.60
9523;BME280;63165;43.016;25.784;2023-02-14T09:45:50;101367.53;;;5.81;70.65
9523;BME280;63165;43.016;25.784;2023-02-14T09:48:23;101393.56;;;6.18;69.83
9523;BME280;63165;43.016;25.784;2023-02-14T09:50:56;101369.50;;;6.27;69.27
9523;BME280;63165;43.016;25.784;2023-02-14T09:53:27;101368.88;;;6.38;68.47
9523;BME280;63165;43.016;25.784;2023-02-14T09:56:04;101356.00;;;6.45;68.10
9523;BME280;63165;43.016;25.784;2023-02-14T09:58:39;101368.56;;;6.66;67.17
9523;BME280;63165;43.016;25.784;2023-02-14T10:01:14;101362.72;;;6.76;66.25
9523;BME280;63165;43.016;25.784;2023-02-14T10:04:12;101370.50;;;6.74;65.65
9523;BME280;63165;43.016;25.784;2023-02-14T10:06:48;101362.66;;;6.73;65.94
9523;BME280;63165;43.016;25.784;2023-02-14T10:09:32;101366.09;;;6.70;65.40
9523;BME280;63165;43.016;25.784;2023-02-14T10:12:01;101359.03;;;6.65;65.32
9523;BME280;63165;43.016;25.784;2023-02-14T10:14:30;101377.28;;;6.66;65.11
9523;BME280;63165;43.016;25.784;2023-02-14T10:17:07;101371.38;;;6.73;65.54
9523;BME280;63165;43.016;25.784;2023-02-14T10:19:38;101361.91;;;6.78;64.98
9523;BME280;63165;43.016;25.784;2023-02-14T10:22:13;101356.69;;;6.78;65.32
9523;BME280;63165;43.016;25.784;2023-02-14T10:24:44;101369.72;;;6.78;65.18
9523;BME280;63165;43.016;25.784;2023-02-14T10:27:25;101363.63;;;6.78;65.03
9523;BME280;63165;43.016;25.784;2023-02-14T10:29:55;101361.91;;;6.78;64.90
9523;BME280;63165;43.016;25.784;2023-02-14T10:32:26;101353.25;;;6.79;64.39
9523;BME280;63165;43.016;25.784;2023-02-14T10:34:59;101351.50;;;6.78;64.68
9523;BME280;63165;43.016;25.784;2023-02-14T10:37:40;101365.38;;;6.77;65.18
9523;BME280;63165;43.016;25.784;2023-02-14T10:40:23;101348.84;;;6.77;65.32
9523;BME280;63165;43.016;25.784;2023-02-14T10:43:00;101353.44;;;6.89;64.60
9523;BME280;63165;43.016;25.784;2023-02-14T10:45:35;101338.81;;;6.95;64.17
9523;BME280;63165;43.016;25.784;2023-02-14T10:48:10;101344.91;;;6.97;63.58
9523;BME280;63165;43.016;25.784;2023-02-14T10:50:46;101346.81;;;7.06;63.51
9523;BME280;63165;43.016;25.784;2023-02-14T10:53:22;101349.63;;;7.17;63.38
9523;BME280;63165;43.016;25.784;2023-02-14T10:55:57;101325.50;;;7.26;63.29
9523;BME280;63165;43.016;25.784;2023-02-14T10:58:31;101343.13;;;7.42;62.83
9523;BME280;63165;43.016;25.784;2023-02-14T11:01:01;101333.66;;;7.47;62.45
9523;BME280;63165;43.016;25.784;2023-02-14T11:03:32;101332.84;;;7.51;62.48
9523;BME280;63165;43.016;25.784;2023-02-14T11:06:01;101326.03;;;7.58;61.88
9523;BME280;63165;43.016;25.784;2023-02-14T11:08:33;101320.84;;;7.58;62.31
9523;BME280;63165;43.016;25.784;2023-02-14T11:11:09;101318.50;;;7.75;62.29
9523;BME280;63165;43.016;25.784;2023-02-14T11:13:40;101318.56;;;7.81;61.30
9523;BME280;63165;43.016;25.784;2023-02-14T11:16:10;101315.22;;;7.88;61.49
9523;BME280;63165;43.016;25.784;2023-02-14T11:18:38;101316.94;;;7.88;60.99
9523;BME280;63165;43.016;25.784;2023-02-14T11:21:09;101313.34;;;7.78;61.19
9523;BME280;63165;43.016;25.784;2023-02-14T11:23:40;101308.09;;;7.76;60.53
9523;BME280;63165;43.016;25.784;2023-02-14T11:26:16;101300.28;;;7.76;60.52
9523;BME280;63165;43.016;25.784;2023-02-14T11:28:53;101296.81;;;7.77;60.58
9523;BME280;63165;43.016;25.784;2023-02-14T11:31:27;101317.63;;;7.74;60.28
9523;BME280;63165;43.016;25.784;2023-02-14T11:33:55;101296.59;;;7.64;60.72
9523;BME280;63165;43.016;25.784;2023-02-14T11:36:24;101302.84;;;7.75;60.86
9523;BME280;63165;43.016;25.784;2023-02-14T11:39:04;101283.78;;;7.77;61.11
9523;BME280;63165;43.016;25.784;2023-02-14T11:41:48;101272.53;;;7.82;60.32
9523;BME280;63165;43.016;25.784;2023-02-14T11:44:18;101291.66;;;7.81;60.61
9523;BME280;63165;43.016;25.784;2023-02-14T11:46:48;101290.66;;;7.74;60.74
9523;BME280;63165;43.016;25.784;2023-02-14T11:49:25;101274.16;;;7.73;60.12
9523;BME280;63165;43.016;25.784;2023-02-14T11:51:54;101267.94;;;7.64;60.32
9523;BME280;63165;43.016;25.784;2023-02-14T11:54:29;101263.53;;;7.58;60.02
9523;BME280;63165;43.016;25.784;2023-02-14T11:57:01;101263.50;;;7.56;59.73
9523;BME280;63165;43.016;25.784;2023-02-14T11:59:30;101263.47;;;7.55;59.99
9523;BME280;63165;43.016;25.784;2023-02-14T12:02:01;101252.25;;;7.57;59.75
9523;BME280;63165;43.016;25.784;2023-02-14T12:04:34;101253.91;;;7.55;60.58
9523;BME280;63165;43.016;25.784;2023-02-14T12:07:20;101245.41;;;7.66;60.19
9523;BME280;63165;43.016;25.784;2023-02-14T12:10:07;101248.06;;;7.70;60.26
9523;BME280;63165;43.016;25.784;2023-02-14T12:12:34;101241.19;;;7.75;60.67
9523;BME280;63165;43.016;25.784;2023-02-14T12:15:25;101244.63;;;7.71;61.55
9523;BME280;63165;43.016;25.784;2023-02-14T12:17:58;101236.84;;;7.76;61.15
9523;BME280;63165;43.016;25.784;2023-02-14T12:20:35;101239.41;;;7.71;61.10
9523;BME280;63165;43.016;25.784;2023-02-14T12:23:09;101228.81;;;7.61;61.17
9523;BME280;63165;43.016;25.784;2023-02-14T12:25:45;101234.91;;;7.60;61.72
9523;BME280;63165;43.016;25.784;2023-02-14T12:28:15;101241.84;;;7.61;61.50
9523;BME280;63165;43.016;25.784;2023-02-14T12:30:43;101246.25;;;7.63;61.78
9523;BME280;63165;43.016;25.784;2023-02-14T12:33:16;101238.41;;;7.62;61.71
9523;BME280;63165;43.016;25.784;2023-02-14T12:35:53;101258.47;;;7.70;61.02
9523;BME280;63165;43.016;25.784;2023-02-14T12:38:31;101236.72;;;7.65;60.93
9523;BME280;63165;43.016;25.784;2023-02-14T12:41:16;101246.28;;;7.66;60.33
9523;BME280;63165;43.016;25.784;2023-02-14T12:43:48;101248.06;;;7.70;60.29
9523;BME280;63165;43.016;25.784;2023-02-14T12:46:32;101241.13;;;7.72;60.05
9523;BME280;63165;43.016;25.784;2023-02-14T12:49:27;101242.00;;;7.71;59.92
9523;BME280;63165;43.016;25.784;2023-02-14T12:52:05;101240.25;;;7.69;60.41
9523;BME280;63165;43.016;25.784;2023-02-14T12:54:48;101231.56;;;7.70;60.14
9523;BME280;63165;43.016;25.784;2023-02-14T12:57:30;101220.22;;;7.66;60.61
9523;BME280;63165;43.016;25.784;2023-02-14T13:00:16;101226.41;;;7.73;60.52
9523;BME280;63165;43.016;25.784;2023-02-14T13:03:09;101229.94;;;7.76;60.68
9523;BME280;63165;43.016;25.784;2023-02-14T13:05:52;101224.75;;;7.78;60.53
9523;BME280;63165;43.016;25.784;2023-02-14T13:08:36;101218.63;;;7.77;60.33
9523;BME280;63165;43.016;25.784;2023-02-14T13:11:14;101226.44;;;7.74;60.44
9523;BME280;63165;43.016;25.784;2023-02-14T13:13:53;101222.13;;;7.76;60.35
9523;BME280;63165;43.016;25.784;2023-02-14T13:16:35;101209.06;;;7.75;60.16
9523;BME280;63165;43.016;25.784;2023-02-14T13:19:12;101208.19;;;7.74;60.27
9523;BME280;63165;43.016;25.784;2023-02-14T13:21:41;101210.06;;;7.85;59.87
9523;BME280;63165;43.016;25.784;2023-02-14T13:24:14;101192.78;;;7.93;59.72
9523;BME280;63165;43.016;25.784;2023-02-14T13:26:47;101185.88;;;7.95;59.29
9523;BME280;63165;43.016;25.784;2023-02-14T13:29:21;101194.69;;;8.05;59.07
9523;BME280;63165;43.016;25.784;2023-02-14T13:31:50;101198.13;;;8.04;58.81
9523;BME280;63165;43.016;25.784;2023-02-14T13:34:26;101196.47;;;8.10;58.80